Time;durP1;ratioP1;P1;durP2;ratioP2;P2;SDS_P1;SDS_P2;PMS_P1;PMS_P2;Temp;Humidity;BMP_temperature;BMP_pressure;BME280_temperature;BME280_humidity;BME280_pressure;Samples;Min_cycle;Max_cycle;Signal;HPM_P1;HPM_P2
2023/02/12 00:01:50;;;;;;;89.78;35.53;;;;;;;6.24;100.00;103531.94;4988137;28;20048;-80
2023/02/12 00:04:15;;;;;;;93.28;38.25;;;;;;;6.30;100.00;103536.84;4992681;28;20033;-80
2023/02/12 00:06:41;;;;;;;93.72;38.72;;;;;;;6.26;100.00;103532.72;4991687;28;20044;-82
2023/02/12 00:09:06;;;;;;;93.00;37.17;;;;;;;6.29;100.00;103530.03;4993821;28;20165;-79
2023/02/12 00:11:32;;;;;;;98.68;37.38;;;;;;;6.25;100.00;103536.19;4993620;28;20057;-81
2023/02/12 00:13:57;;;;;;;97.00;36.88;;;;;;;6.22;100.00;103532.00;4977817;28;20041;-79
2023/02/12 00:16:30;;;;;;;100.78;37.28;;;;;;;6.28;100.00;103535.22;4980659;28;20040;-79
2023/02/12 00:18:57;;;;;;;98.93;37.45;;;;;;;6.33;100.00;103530.72;4998495;28;20426;-85
2023/02/12 00:21:23;;;;;;;96.80;37.22;;;;;;;6.31;100.00;103532.50;4992489;28;20038;-81
2023/02/12 00:23:49;;;;;;;98.53;37.38;;;;;;;6.26;100.00;103539.63;4992870;28;20034;-79
2023/02/12 00:26:18;;;;;;;90.70;35.45;;;;;;;6.24;100.00;103537.91;4991645;28;20034;-81
2023/02/12 00:28:47;;;;;;;91.43;37.27;;;;;;;6.25;100.00;103538.75;5006957;28;20038;-80
2023/02/12 00:31:15;;;;;;;90.68;36.80;;;;;;;6.20;100.00;103538.94;4980422;28;20569;-79
2023/02/12 00:33:41;;;;;;;91.68;34.58;;;;;;;6.20;100.00;103544.09;4977125;28;20045;-79
2023/02/12 00:36:08;;;;;;;89.82;34.65;;;;;;;6.18;100.00;103552.81;4977768;28;20034;-79
2023/02/12 00:38:34;;;;;;;92.70;36.08;;;;;;;6.18;100.00;103547.66;4979358;28;20030;-82
2023/02/12 00:41:00;;;;;;;87.15;35.55;;;;;;;6.15;100.00;103550.34;4975172;28;20379;-79
2023/02/12 00:43:26;;;;;;;99.90;37.15;;;;;;;6.13;100.00;103545.25;4993783;28;20029;-82
2023/02/12 00:45:52;;;;;;;90.72;35.00;;;;;;;6.13;100.00;103541.81;4995980;28;20049;-82
2023/02/12 00:48:18;;;;;;;94.90;37.03;;;;;;;6.11;100.00;103541.88;4990487;28;20077;-79
2023/02/12 00:50:45;;;;;;;87.78;35.17;;;;;;;6.11;100.00;103534.16;4991345;28;20049;-79
2023/02/12 00:53:11;;;;;;;97.90;34.85;;;;;;;6.12;100.00;103537.56;4997821;28;20037;-79
2023/02/12 00:55:37;;;;;;;87.97;36.25;;;;;;;6.12;100.00;103535.84;4989892;28;20085;-80
2023/02/12 00:58:02;;;;;;;99.13;37.50;;;;;;;6.18;100.00;103537.34;5000738;28;20041;-79
2023/02/12 01:00:32;;;;;;;90.35;35.15;;;;;;;6.12;100.00;103535.84;5010159;28;20045;-81
2023/02/12 01:02:58;;;;;;;103.00;37.25;;;;;;;6.17;100.00;103531.31;5009123;28;20126;-79
2023/02/12 01:05:23;;;;;;;88.72;34.78;;;;;;;6.12;100.00;103534.97;4998197;28;20383;-79
2023/02/12 01:07:52;;;;;;;95.22;33.95;;;;;;;6.16;100.00;103536.53;5009145;28;20033;-80
2023/02/12 01:10:19;;;;;;;90.03;35.28;;;;;;;6.16;100.00;103544.25;4989589;28;20041;-80
2023/02/12 01:12:46;;;;;;;94.72;36.38;;;;;;;6.13;100.00;103537.50;4990192;28;20042;-80
2023/02/12 01:15:12;;;;;;;91.68;35.42;;;;;;;6.10;100.00;103532.47;5006163;28;20422;-79
2023/02/12 01:17:38;;;;;;;86.82;34.83;;;;;;;6.13;100.00;103531.53;4991081;28;20072;-79
2023/02/12 01:20:06;;;;;;;96.03;36.80;;;;;;;6.11;100.00;103534.16;4992091;28;20030;-79
2023/02/12 01:22:36;;;;;;;99.55;37.72;;;;;;;6.09;100.00;103537.69;4990080;28;20098;-79
2023/02/12 01:25:03;;;;;;;83.55;36.22;;;;;;;6.08;100.00;103533.44;4988423;28;20054;-79
2023/02/12 01:27:32;;;;;;;95.18;37.63;;;;;;;6.07;100.00;103532.59;4976646;28;20037;-79
2023/02/12 01:29:57;;;;;;;94.32;37.20;;;;;;;6.06;100.00;103525.75;4999141;28;20457;-81
2023/02/12 01:32:23;;;;;;;96.45;37.50;;;;;;;6.05;100.00;103524.09;4989658;28;20044;-79
2023/02/12 01:34:48;;;;;;;88.32;34.70;;;;;;;6.03;100.00;103528.47;4992613;28;20053;-79
2023/02/12 01:37:15;;;;;;;92.70;34.90;;;;;;;6.02;100.00;103521.63;4987320;28;20035;-80
2023/02/12 01:39:40;;;;;;;87.20;35.50;;;;;;;6.04;100.00;103532.72;4975151;28;20376;-79
2023/02/12 01:42:06;;;;;;;88.38;33.78;;;;;;;6.02;100.00;103525.03;4992544;28;20037;-79
2023/02/12 01:44:35;;;;;;;92.78;34.10;;;;;;;6.02;100.00;103524.19;4990335;28;20026;-80
2023/02/12 01:47:03;;;;;;;93.28;35.83;;;;;;;6.02;100.00;103522.47;4991400;28;20026;-79
2023/02/12 01:49:32;;;;;;;85.22;33.78;;;;;;;6.01;100.00;103525.13;4991756;28;20037;-80
2023/02/12 01:52:22;;;;;;;88.38;35.53;;;;;;;5.99;100.00;103529.47;4972621;28;20172;-82
2023/02/12 01:54:49;;;;;;;86.25;33.90;;;;;;;5.98;100.00;103523.47;4993492;28;20452;-82
2023/02/12 01:57:17;;;;;;;84.03;33.15;;;;;;;5.99;100.00;103514.00;4972334;28;20030;-84
2023/02/12 01:59:44;;;;;;;90.38;34.42;;;;;;;5.98;100.00;103508.03;4993613;28;20125;-83
2023/02/12 02:02:10;;;;;;;90.63;36.05;;;;;;;6.00;100.00;103513.94;4991853;28;20037;-80
2023/02/12 02:04:40;;;;;;;91.38;33.90;;;;;;;5.98;100.00;103515.75;4982770;28;20033;-79
2023/02/12 02:07:07;;;;;;;93.03;34.67;;;;;;;5.96;100.00;103512.41;4991078;28;20271;-79
2023/02/12 02:09:36;;;;;;;90.30;36.47;;;;;;;5.93;100.00;103507.31;4988884;28;20126;-79
2023/02/12 02:14:48;;;;;;;83.13;32.85;;;;;;;5.93;100.00;103511.66;5008340;28;20042;-79
2023/02/12 02:17:26;;;;;;;85.68;34.30;;;;;;;5.93;100.00;103517.63;4992764;28;20486;-79
2023/02/12 02:20:10;;;;;;;93.55;36.63;;;;;;;5.92;100.00;103507.41;4993331;28;20153;-80
2023/02/12 02:22:55;;;;;;;87.37;34.50;;;;;;;5.91;100.00;103511.69;5010059;28;20932;-79
2023/02/12 02:26:11;;;;;;;84.38;31.50;;;;;;;5.91;100.00;103513.44;5001043;28;20501;-85
2023/02/12 02:29:00;;;;;;;87.28;34.78;;;;;;;5.90;100.00;103506.63;5007995;28;20042;-79
2023/02/12 02:31:43;;;;;;;88.32;32.25;;;;;;;5.89;100.00;103508.34;4990533;28;20533;-82
2023/02/12 02:34:18;;;;;;;81.18;32.38;;;;;;;5.89;100.00;103505.78;4993077;28;20029;-79
2023/02/12 02:36:55;;;;;;;82.32;32.33;;;;;;;5.89;100.00;103510.09;4989299;28;20097;-86
2023/02/12 02:39:20;;;;;;;82.20;32.85;;;;;;;5.88;100.00;103505.81;4991855;28;20034;-79
2023/02/12 02:42:07;;;;;;;77.97;33.15;;;;;;;5.88;100.00;103506.69;4991304;28;20120;-82
2023/02/12 02:45:23;;;;;;;77.28;31.80;;;;;;;5.88;100.00;103516.13;4986935;28;20394;-80
2023/02/12 02:47:58;;;;;;;88.38;33.60;;;;;;;5.85;100.00;103512.78;4973929;28;20176;-82
2023/02/12 02:50:27;;;;;;;76.18;31.25;;;;;;;5.83;100.00;103500.88;4991754;28;20414;-80
2023/02/12 02:53:02;;;;;;;83.35;33.80;;;;;;;5.81;100.00;103502.66;4977888;28;20038;-79
2023/02/12 02:55:34;;;;;;;79.40;30.70;;;;;;;5.79;100.00;103505.28;4995696;28;20030;-79
2023/02/12 02:58:19;;;;;;;84.07;31.60;;;;;;;5.80;100.00;103504.41;4994196;28;20057;-80
2023/02/12 03:01:00;;;;;;;78.30;30.90;;;;;;;5.78;100.00;103498.47;4987546;28;20049;-82
2023/02/12 03:03:39;;;;;;;79.32;32.03;;;;;;;5.78;100.00;103502.78;5010525;28;20038;-85
2023/02/12 03:06:18;;;;;;;76.15;32.28;;;;;;;5.77;100.00;103506.25;4992814;28;20049;-79
2023/02/12 03:08:51;;;;;;;84.25;33.80;;;;;;;5.78;100.00;103510.50;5028487;28;20044;-80
2023/02/12 03:11:25;;;;;;;79.05;31.50;;;;;;;5.78;100.00;103505.34;4980812;28;20175;-81
2023/02/12 03:14:07;;;;;;;80.40;32.03;;;;;;;5.77;100.00;103503.69;4993856;28;20083;-80
2023/02/12 03:16:43;;;;;;;75.28;30.92;;;;;;;5.76;100.00;103502.81;4996509;28;20045;-80
2023/02/12 03:19:14;;;;;;;78.60;31.80;;;;;;;5.75;100.00;103498.59;4996494;28;20095;-79
2023/02/12 03:21:47;;;;;;;77.28;32.22;;;;;;;5.75;100.00;103501.16;4982388;28;20037;-79
2023/02/12 03:24:13;;;;;;;;;;;;;;;5.74;100.00;103498.63;5010489;28;20110;-82
2023/02/12 03:26:47;;;;;;;79.73;30.97;;;;;;;5.73;100.00;103490.09;5009263;28;20353;-79
2023/02/12 03:29:13;;;;;;;75.00;29.80;;;;;;;5.72;100.00;103493.53;5025677;28;20753;-79
2023/02/12 03:32:02;;;;;;;86.20;31.63;;;;;;;5.72;100.00;103495.28;4978634;28;20062;-79
2023/02/12 03:34:46;;;;;;;88.07;33.38;;;;;;;5.72;100.00;103497.88;5007192;28;20048;-80
2023/02/12 03:37:32;;;;;;;87.13;34.60;;;;;;;5.72;100.00;103500.44;4976102;28;20054;-79
2023/02/12 03:40:16;;;;;;;84.97;33.88;;;;;;;5.72;100.00;103497.88;4993212;28;20042;-80
2023/02/12 03:43:00;;;;;;;77.40;31.40;;;;;;;5.71;100.00;103491.03;4988978;28;20049;-80
2023/02/12 03:45:41;;;;;;;86.35;33.03;;;;;;;5.70;100.00;103490.19;4989399;28;20038;-80
2023/02/12 03:48:27;;;;;;;82.07;32.10;;;;;;;5.71;100.00;103499.59;4990885;28;20042;-80
2023/02/12 03:51:41;;;;;;;84.47;32.88;;;;;;;5.71;100.00;103491.88;4993170;28;20046;-80
2023/02/12 03:54:09;;;;;;;82.40;32.33;;;;;;;5.70;100.00;103486.78;4992261;28;20033;-80
2023/02/12 03:56:59;;;;;;;76.72;32.22;;;;;;;5.71;100.00;103493.59;4994073;28;20033;-80
2023/02/12 03:59:25;;;;;;;87.05;34.28;;;;;;;5.76;100.00;103489.94;5010848;28;20398;-79
2023/02/12 04:01:52;;;;;;;89.03;35.83;;;;;;;5.79;100.00;103501.88;4992237;28;20034;-80
2023/02/12 04:04:19;;;;;;;85.22;34.25;;;;;;;5.74;100.00;103498.63;4994242;28;20549;-80
2023/02/12 04:06:46;;;;;;;88.63;34.08;;;;;;;5.71;100.00;103499.59;4983857;28;20410;-80
2023/02/12 04:09:12;;;;;;;82.55;32.83;;;;;;;5.71;100.00;103501.31;5008651;28;20798;-79
2023/02/12 04:11:57;;;;;;;78.47;32.00;;;;;;;5.70;100.00;103505.63;5009513;28;20042;-79
2023/02/12 04:14:49;;;;;;;83.15;33.17;;;;;;;5.70;100.00;103507.38;4992886;28;20454;-80
2023/02/12 04:17:17;;;;;;;79.25;32.83;;;;;;;5.69;100.00;103508.28;5021630;28;20096;-79
2023/02/12 04:19:54;;;;;;;83.90;34.13;;;;;;;5.69;100.00;103505.69;4979891;28;20034;-80
2023/02/12 04:22:41;;;;;;;83.50;33.05;;;;;;;5.67;100.00;103510.94;4991277;28;20087;-79
2023/02/12 04:25:41;;;;;;;91.00;33.60;;;;;;;5.65;100.00;103516.13;4976040;28;20026;-82
2023/02/12 04:28:21;;;;;;;79.30;33.15;;;;;;;5.64;100.00;103518.75;4995870;28;20092;-79
2023/02/12 04:30:56;;;;;;;81.85;32.97;;;;;;;5.64;100.00;103521.31;5024734;28;20121;-80
2023/02/12 04:33:26;;;;;;;81.57;32.58;;;;;;;5.64;100.00;103537.59;4993352;28;20422;-82
2023/02/12 04:36:26;;;;;;;82.93;32.20;;;;;;;5.63;100.00;103530.78;4995881;28;20073;-79
2023/02/12 04:39:00;;;;;;;87.70;33.65;;;;;;;5.65;100.00;103530.72;4977150;28;20049;-79
2023/02/12 04:41:26;;;;;;;81.22;32.25;;;;;;;5.63;100.00;103530.78;4986249;28;20556;-78
2023/02/12 04:44:24;;;;;;;80.18;31.67;;;;;;;5.62;100.00;103529.09;4977195;28;20073;-81
2023/02/12 04:46:51;;;;;;;93.20;34.83;;;;;;;5.70;100.00;103533.97;5011149;28;20069;-80
2023/02/12 04:49:18;;;;;;;78.88;32.55;;;;;;;5.66;100.00;103532.41;4973297;28;20038;-80
2023/02/12 04:51:45;;;;;;;78.22;32.85;;;;;;;5.65;100.00;103530.72;4991932;28;20076;-79
2023/02/12 04:54:11;;;;;;;77.50;31.55;;;;;;;5.64;100.00;103531.63;4992618;28;20030;-82
2023/02/12 04:56:36;;;;;;;74.88;30.90;;;;;;;5.62;100.00;103539.41;4974949;28;20038;-81
2023/02/12 04:59:02;;;;;;;75.32;30.52;;;;;;;5.61;100.00;103542.88;5009318;28;20045;-79
2023/02/12 05:01:28;;;;;;;76.75;31.13;;;;;;;5.59;100.00;103533.53;4979865;28;20057;-79
2023/02/12 05:03:53;;;;;;;89.03;34.42;;;;;;;5.67;100.00;103539.25;4992468;28;20038;-84
2023/02/12 05:06:19;;;;;;;78.88;30.85;;;;;;;5.60;100.00;103536.03;4993576;28;20042;-79
2023/02/12 05:08:44;;;;;;;78.95;32.45;;;;;;;5.58;100.00;103531.84;4992575;28;20026;-79
2023/02/12 05:11:10;;;;;;;79.60;32.08;;;;;;;5.61;100.00;103530.00;4994823;28;20040;-79
2023/02/12 05:13:36;;;;;;;83.10;32.20;;;;;;;5.59;100.00;103536.94;4990701;28;20062;-81
2023/02/12 05:16:04;;;;;;;73.15;32.03;;;;;;;5.56;100.00;103534.47;4976678;28;20111;-79
2023/02/12 05:18:30;;;;;;;70.68;30.85;;;;;;;5.55;100.00;103532.78;5005657;28;20524;-81
2023/02/12 05:20:57;;;;;;;79.88;33.25;;;;;;;5.55;100.00;103543.09;4992467;28;20041;-80
2023/02/12 05:23:29;;;;;;;87.07;34.75;;;;;;;5.54;100.00;103536.28;4977180;28;20029;-80
2023/02/12 05:25:57;;;;;;;81.88;32.22;;;;;;;5.54;100.00;103535.41;4990120;28;20483;-79
2023/02/12 05:28:23;;;;;;;76.07;31.98;;;;;;;5.55;100.00;103543.09;4994015;28;20054;-80
2023/02/12 05:30:49;;;;;;;74.88;30.90;;;;;;;5.52;100.00;103548.38;4990748;28;20040;-79
2023/02/12 05:33:14;;;;;;;78.20;30.77;;;;;;;5.52;100.00;103552.66;4988856;28;20029;-79
2023/02/12 05:35:39;;;;;;;73.93;30.38;;;;;;;5.53;100.00;103551.78;4980555;28;20561;-86
2023/02/12 05:38:05;;;;;;;79.43;31.67;;;;;;;5.52;100.00;103548.38;4990752;28;20038;-81
2023/02/12 05:40:30;;;;;;;70.15;30.55;;;;;;;5.54;100.00;103550.84;4977118;28;20053;-79
2023/02/12 05:42:56;;;;;;;76.95;30.77;;;;;;;5.54;100.00;103558.59;4975227;28;20030;-80
2023/02/12 05:45:26;;;;;;;72.68;31.00;;;;;;;5.54;100.00;103551.72;4989796;28;20026;-79
2023/02/12 05:47:52;;;;;;;81.20;32.80;;;;;;;5.52;100.00;103545.78;5001644;28;20041;-79
2023/02/12 05:50:18;;;;;;;80.90;33.47;;;;;;;5.54;100.00;103545.72;5012587;28;20038;-79
2023/02/12 05:52:44;;;;;;;77.10;31.58;;;;;;;5.51;100.00;103558.72;4971905;28;20038;-79
2023/02/12 05:55:09;;;;;;;84.85;33.75;;;;;;;5.51;100.00;103558.72;4989116;28;20471;-79
2023/02/12 05:57:35;;;;;;;76.03;30.60;;;;;;;5.49;100.00;103553.63;4989273;28;20347;-79
2023/02/12 06:00:01;;;;;;;80.63;32.33;;;;;;;5.46;100.00;103557.16;4987923;28;20033;-79
2023/02/12 06:02:37;;;;;;;76.63;29.92;;;;;;;5.51;100.00;103561.28;5006364;28;20124;-80
2023/02/12 06:05:03;;;;;;;76.47;31.67;;;;;;;5.49;100.00;103561.34;4979389;28;20022;-80
2023/02/12 06:07:28;;;;;;;75.47;31.10;;;;;;;5.48;100.00;103562.22;4989245;28;20455;-79
2023/02/12 06:09:54;;;;;;;75.57;30.92;;;;;;;5.44;100.00;103564.09;4975336;28;20062;-79
2023/02/12 06:12:20;;;;;;;81.00;31.58;;;;;;;5.43;100.00;103562.41;4990813;28;20045;-79
2023/02/12 06:14:45;;;;;;;67.75;29.67;;;;;;;5.44;100.00;103563.22;4985863;28;20543;-80
2023/02/12 06:17:11;;;;;;;69.72;29.05;;;;;;;5.42;100.00;103565.03;4994623;28;20049;-79
2023/02/12 06:19:36;;;;;;;75.28;30.02;;;;;;;5.44;100.00;103563.22;4990337;28;20112;-79
2023/02/12 06:22:02;;;;;;;73.93;31.38;;;;;;;5.43;100.00;103557.25;5007568;28;20045;-79
2023/02/12 06:24:27;;;;;;;77.57;31.20;;;;;;;5.43;100.00;103557.25;4973906;28;20037;-80
2023/02/12 06:26:53;;;;;;;73.10;31.45;;;;;;;5.43;100.00;103559.81;5012372;28;20096;-79
2023/02/12 06:29:19;;;;;;;69.22;30.27;;;;;;;5.44;100.00;103552.94;4997358;28;20034;-79
2023/02/12 06:31:45;;;;;;;70.18;30.60;;;;;;;5.45;100.00;103559.78;5007413;28;20038;-79
2023/02/12 06:34:12;;;;;;;77.80;32.17;;;;;;;5.46;100.00;103561.44;4993316;28;20033;-79
2023/02/12 06:36:40;;;;;;;68.28;29.40;;;;;;;5.45;100.00;103564.91;4977510;28;20108;-79
2023/02/12 06:39:06;;;;;;;70.80;28.88;;;;;;;5.44;100.00;103561.53;4993202;28;20038;-79
2023/02/12 06:41:32;;;;;;;67.82;30.30;;;;;;;5.44;100.00;103561.53;4995435;28;20557;-80
2023/02/12 06:43:57;;;;;;;73.82;30.02;;;;;;;5.45;100.00;103559.78;4980880;28;20116;-79
2023/02/12 06:46:23;;;;;;;72.00;30.13;;;;;;;5.45;100.00;103567.50;4994617;28;20030;-79
2023/02/12 06:48:53;;;;;;;74.22;31.45;;;;;;;5.45;100.00;103567.50;4992781;28;21900;-79
2023/02/12 06:51:20;;;;;;;69.38;29.10;;;;;;;5.45;100.00;103565.75;5010921;28;20121;-79
2023/02/12 06:53:46;;;;;;;72.30;29.17;;;;;;;5.45;100.00;103567.50;5008969;28;20123;-79
2023/02/12 06:56:13;;;;;;;73.32;30.83;;;;;;;5.46;100.00;103571.72;5004434;28;20394;-79
2023/02/12 06:58:41;;;;;;;72.28;31.33;;;;;;;5.46;100.00;103571.72;4991645;28;20506;-79
2023/02/12 07:01:12;;;;;;;68.78;29.80;;;;;;;5.45;100.00;103570.91;4990197;28;20526;-80
2023/02/12 07:03:39;;;;;;;80.72;32.30;;;;;;;5.46;100.00;103577.75;4997993;28;20533;-79
2023/02/12 07:06:05;;;;;;;70.53;30.05;;;;;;;5.47;100.00;103576.00;5005764;28;20070;-79
2023/02/12 07:08:30;;;;;;;68.60;28.75;;;;;;;5.46;100.00;103577.75;5011375;28;20430;-80
2023/02/12 07:10:56;;;;;;;70.10;29.52;;;;;;;5.46;100.00;103580.31;5024928;28;20041;-79
2023/02/12 07:13:21;;;;;;;65.38;29.20;;;;;;;5.46;100.00;103588.03;5006591;28;20479;-79
2023/02/12 07:15:47;;;;;;;74.25;30.30;;;;;;;5.48;100.00;103590.53;4976687;28;20518;-80
2023/02/12 07:18:12;;;;;;;76.60;31.95;;;;;;;5.53;100.00;103595.53;4994191;28;20030;-79
2023/02/12 07:20:37;;;;;;;79.93;34.28;;;;;;;5.48;100.00;103593.09;4989038;28;20052;-78
2023/02/12 07:23:03;;;;;;;77.28;31.92;;;;;;;5.47;100.00;103597.41;4977098;28;20026;-79
2023/02/12 07:25:28;;;;;;;78.13;30.80;;;;;;;5.46;100.00;103593.19;4994476;28;20039;-79
2023/02/12 07:27:54;;;;;;;76.95;31.70;;;;;;;5.45;100.00;103594.06;4994349;28;20529;-78
2023/02/12 07:30:19;;;;;;;70.63;31.08;;;;;;;5.45;100.00;103599.22;4992391;28;20056;-80
2023/02/12 07:32:45;;;;;;;77.03;30.23;;;;;;;5.45;100.00;103596.63;4994723;28;20038;-79
2023/02/12 07:35:10;;;;;;;66.90;29.42;;;;;;;5.46;100.00;103598.34;4989913;28;20375;-79
2023/02/12 07:37:36;;;;;;;75.88;30.67;;;;;;;5.47;100.00;103602.56;4992433;28;20115;-79
2023/02/12 07:40:01;;;;;;;73.75;31.52;;;;;;;5.52;100.00;103597.28;4972412;28;20053;-80
2023/02/12 07:42:28;;;;;;;76.03;30.67;;;;;;;5.53;100.00;103601.50;4992385;28;20041;-79
2023/02/12 07:44:53;;;;;;;75.55;31.30;;;;;;;5.54;100.00;103603.22;5010418;28;20030;-79
2023/02/12 07:47:18;;;;;;;74.80;31.52;;;;;;;5.52;100.00;103599.84;5007590;28;20154;-80
2023/02/12 07:49:44;;;;;;;77.85;31.80;;;;;;;5.56;100.00;103600.59;4992896;28;20034;-79
2023/02/12 07:52:09;;;;;;;73.22;30.88;;;;;;;5.56;100.00;103600.59;4977550;28;20545;-80
2023/02/12 07:54:35;;;;;;;82.53;34.10;;;;;;;5.57;100.00;103603.06;4978254;28;20034;-80
2023/02/12 07:57:00;;;;;;;72.13;30.17;;;;;;;5.58;100.00;103607.34;4994792;28;20041;-79
2023/02/12 07:59:27;;;;;;;83.18;32.45;;;;;;;5.60;100.00;103602.97;4993048;28;20034;-79
2023/02/12 08:01:53;;;;;;;76.70;30.55;;;;;;;5.61;100.00;103608.97;4974174;28;20069;-80
2023/02/12 08:04:22;;;;;;;82.70;33.55;;;;;;;5.63;100.00;103604.59;4997486;28;20096;-80
2023/02/12 08:06:50;;;;;;;80.25;32.17;;;;;;;5.66;100.00;103609.63;4993136;28;20080;-79
2023/02/12 08:09:19;;;;;;;82.47;34.00;;;;;;;5.69;100.00;103614.69;5009052;28;21231;-79
2023/02/12 08:11:45;;;;;;;73.90;30.85;;;;;;;5.70;100.00;103618.09;4993346;28;20052;-79
2023/02/12 08:14:14;;;;;;;80.32;32.78;;;;;;;5.70;100.00;103618.94;5010281;28;20029;-79
2023/02/12 08:16:40;;;;;;;94.15;34.97;;;;;;;5.80;100.00;103619.44;4991489;28;20047;-79
2023/02/12 08:19:07;;;;;;;83.22;33.80;;;;;;;5.88;100.00;103619.16;4993788;28;20117;-80
2023/02/12 08:21:32;;;;;;;82.32;32.80;;;;;;;5.83;100.00;103620.16;4974672;28;20132;-80
2023/02/12 08:23:58;;;;;;;85.78;32.50;;;;;;;5.84;100.00;103624.44;4992229;28;20534;-80
2023/02/12 08:26:27;;;;;;;74.30;32.25;;;;;;;5.90;100.00;103630.25;4987289;28;20034;-79
2023/02/12 08:29:09;;;;;;;84.40;35.08;;;;;;;5.90;100.00;103627.69;4995311;28;20038;-79
2023/02/12 08:31:38;;;;;;;85.00;34.00;;;;;;;5.91;100.00;103631.91;5002428;28;20549;-79
2023/02/12 08:34:04;;;;;;;85.40;34.40;;;;;;;6.00;100.00;103627.28;4976300;28;20097;-79
2023/02/12 08:36:38;;;;;;;84.43;34.03;;;;;;;6.01;100.00;103633.31;4997372;28;20130;-79
2023/02/12 08:39:04;;;;;;;92.85;36.33;;;;;;;6.04;100.00;103638.34;4993132;28;20034;-79
2023/02/12 08:41:30;;;;;;;90.28;36.28;;;;;;;6.00;100.00;103632.44;5006220;28;20049;-78
2023/02/12 08:43:58;;;;;;;94.93;35.55;;;;;;;5.99;100.00;103635.94;4991629;28;20406;-80
2023/02/12 08:46:26;;;;;;;96.78;35.53;;;;;;;6.07;100.00;103637.41;5007883;28;20034;-79
2023/02/12 08:48:54;;;;;;;86.35;34.88;;;;;;;6.06;100.00;103639.09;4994016;28;20034;-80
2023/02/12 08:51:30;;;;;;;85.63;34.45;;;;;;;6.08;100.00;103641.63;4986554;28;20477;-80
2023/02/12 08:53:59;;;;;;;84.35;34.03;;;;;;;6.19;100.00;103632.59;4993130;28;20034;-79
2023/02/12 08:56:25;;;;;;;93.25;36.40;;;;;;;6.18;100.00;103638.66;4993498;28;20033;-80
2023/02/12 08:58:51;;;;;;;89.40;34.92;;;;;;;6.17;100.00;103636.97;4977283;28;20049;-79
2023/02/12 09:01:20;;;;;;;90.82;35.58;;;;;;;6.23;100.00;103638.47;4990932;28;20391;-79
2023/02/12 09:03:47;;;;;;;83.57;33.20;;;;;;;6.23;100.00;103646.19;4991150;28;20151;-79
2023/02/12 09:06:15;;;;;;;80.78;33.67;;;;;;;6.21;100.00;103637.69;4952034;28;20042;-79
2023/02/12 09:08:41;;;;;;;76.40;32.38;;;;;;;6.23;100.00;103639.34;5002472;28;20056;-80
2023/02/12 09:11:11;;;;;;;88.50;34.28;;;;;;;6.31;100.00;103640.75;4987081;28;20048;-79
2023/02/12 09:13:38;;;;;;;86.00;34.22;;;;;;;6.35;100.00;103637.19;4991796;28;20462;-80
2023/02/12 09:16:04;;;;;;;80.00;34.45;;;;;;;6.32;100.00;103638.13;5006390;28;20061;-79
2023/02/12 09:18:30;;;;;;;90.63;34.53;;;;;;;6.32;100.00;103638.13;5005123;28;20056;-79
2023/02/12 09:21:04;;;;;;;81.63;33.13;;;;;;;6.33;100.00;103638.97;4975055;28;20071;-80
2023/02/12 09:23:30;;;;;;;84.50;32.88;;;;;;;6.31;100.00;103636.47;4992319;28;20033;-80
2023/02/12 09:25:55;;;;;;;88.55;33.17;;;;;;;6.33;100.00;103641.53;5008981;28;20403;-79
2023/02/12 09:28:21;;;;;;;78.57;33.13;;;;;;;6.34;100.00;103640.66;4993966;28;20033;-79
2023/02/12 09:30:46;;;;;;;83.18;35.38;;;;;;;6.37;100.00;103648.28;4991471;28;20057;-81
2023/02/12 09:33:11;;;;;;;96.57;35.65;;;;;;;6.42;100.00;103647.19;4993673;28;20510;-79
2023/02/12 09:35:38;;;;;;;83.00;34.40;;;;;;;6.54;100.00;103640.72;4992493;28;20041;-80
2023/02/12 09:38:06;;;;;;;83.40;34.13;;;;;;;6.64;100.00;103638.63;4996473;28;20073;-79
2023/02/12 09:40:43;;;;;;;82.07;34.30;;;;;;;6.58;100.00;103644.03;4977354;28;20037;-79
2023/02/12 09:43:31;;;;;;;93.97;35.70;;;;;;;6.56;100.00;103641.50;5022531;28;20131;-79
2023/02/12 09:46:07;;;;;;;93.28;35.30;;;;;;;6.57;100.00;103640.59;4991938;28;20041;-80
2023/02/12 09:48:44;;;;;;;90.68;36.78;;;;;;;6.66;100.00;103635.97;4978286;28;20471;-80
2023/02/12 09:51:10;;;;;;;80.78;33.65;;;;;;;6.67;100.00;103646.25;4989365;28;20041;-79
2023/02/12 09:53:42;;;;;;;86.38;35.33;;;;;;;6.74;100.00;103644.25;4989268;28;20052;-80
2023/02/12 09:56:19;;;;;;;89.60;34.42;;;;;;;6.70;100.00;103643.50;4986830;28;20045;-79
2023/02/12 09:58:50;;;;;;;89.97;34.08;;;;;;;6.70;100.00;103637.53;4992765;28;20119;-80
2023/02/12 10:01:18;;;;;;;79.43;33.60;;;;;;;6.72;100.00;103640.88;4990697;28;20449;-80
2023/02/12 10:03:46;;;;;;;81.60;33.40;;;;;;;6.74;100.00;103639.94;5009175;28;20038;-80
2023/02/12 10:06:34;;;;;;;93.93;36.33;;;;;;;6.79;100.00;103650.88;4989561;28;20030;-80
2023/02/12 10:09:14;;;;;;;84.55;34.78;;;;;;;6.79;100.00;103648.31;4989049;28;20061;-80
2023/02/12 10:11:58;;;;;;;83.97;33.47;;;;;;;6.86;100.00;103658.41;4991136;28;20072;-79
2023/02/12 10:14:41;;;;;;;76.53;32.55;;;;;;;6.85;100.00;103646.38;5023535;28;20068;-79
2023/02/12 10:17:22;;;;;;;85.57;34.10;;;;;;;6.91;100.00;103656.44;5003828;28;20045;-80
2023/02/12 10:20:22;;;;;;;74.45;32.83;;;;;;;6.92;100.00;103655.56;4991195;28;20040;-80
2023/02/12 10:23:03;;;;;;;82.88;33.35;;;;;;;7.01;100.00;103652.63;4929521;28;20492;-79
2023/02/12 10:25:53;;;;;;;79.78;33.55;;;;;;;7.03;100.00;103648.22;5004042;28;20018;-80
2023/02/12 10:28:25;;;;;;;93.43;35.03;;;;;;;7.08;100.00;103661.75;4992333;28;20100;-79
2023/02/12 10:30:57;;;;;;;83.60;35.50;;;;;;;7.10;100.00;103656.53;4979190;28;20713;-79
2023/02/12 10:33:44;;;;;;;82.32;33.97;;;;;;;7.12;100.00;103655.59;5005991;28;20528;-80
2023/02/12 10:36:37;;;;;;;87.60;35.10;;;;;;;7.15;100.00;103657.19;5008853;28;20123;-79
2023/02/12 10:39:09;;;;;;;78.53;32.10;;;;;;;7.25;100.00;103652.47;4977707;28;20443;-80
2023/02/12 10:41:42;;;;;;;83.53;34.17;;;;;;;7.23;100.00;103655.13;4971731;28;20503;-80
2023/02/12 10:44:10;;;;;;;83.13;33.25;;;;;;;7.22;100.00;103651.72;4986865;28;20044;-80
2023/02/12 10:46:36;;;;;;;85.93;35.67;;;;;;;7.21;100.00;103649.19;4984139;28;20394;-81
2023/02/12 10:49:02;;;;;;;79.60;34.53;;;;;;;7.25;100.00;103644.75;4975723;28;20038;-80
2023/02/12 10:51:47;;;;;;;82.72;34.75;;;;;;;7.32;100.00;103644.41;4989196;28;20038;-80
2023/02/12 10:54:43;;;;;;;78.18;32.63;;;;;;;7.36;100.00;103643.38;4972387;28;20029;-80
2023/02/12 10:57:17;;;;;;;79.88;35.05;;;;;;;7.38;100.00;103648.47;4972287;28;20113;-80
2023/02/12 10:59:45;;;;;;;76.38;33.10;;;;;;;7.42;100.00;103647.44;4987125;28;20038;-79
2023/02/12 11:02:24;;;;;;;75.32;31.63;;;;;;;7.45;100.00;103646.47;4992994;28;20042;-80
2023/02/12 11:04:51;;;;;;;77.75;33.95;;;;;;;7.51;100.00;103639.28;4974058;28;20121;-80
2023/02/12 11:07:17;;;;;;;85.50;34.80;;;;;;;7.55;100.00;103647.75;4991898;28;20120;-80
2023/02/12 11:09:45;;;;;;;78.95;33.22;;;;;;;7.56;100.00;103639.94;4989673;28;20084;-79
2023/02/12 11:12:37;;;;;;;73.40;31.83;;;;;;;7.58;100.00;103632.97;4977909;28;20030;-79
2023/02/12 11:15:18;;;;;;;70.55;31.98;;;;;;;7.63;100.00;103640.53;4994034;28;20038;-79
2023/02/12 11:18:04;;;;;;;69.20;31.23;;;;;;;7.63;100.00;103627.59;4991375;28;20669;-79
2023/02/12 11:20:50;;;;;;;78.40;32.47;;;;;;;7.74;100.00;103632.28;5005290;28;20033;-79
2023/02/12 11:23:22;;;;;;;71.72;31.42;;;;;;;7.87;97.77;103632.56;4979107;28;20148;-80
2023/02/12 11:26:17;;;;;;;70.03;30.23;;;;;;;7.83;98.18;103626.69;4993028;28;20392;-79
2023/02/12 11:29:00;;;;;;;79.25;31.67;;;;;;;7.88;97.82;103622.16;4972226;28;20128;-80
2023/02/12 11:31:32;;;;;;;;;;;;;;;7.89;98.46;103621.28;5011109;28;20038;-80